^^
Datos históricos de la estación: Murcia-Puente Tocinos
Diario Informe para Agosto 10, 2019 Unidades:  Ambas    Ingés   Métrico
Diario Semanal Mensual Anual
  Máxima: Mínima: Promedio:
Temperatura: 88.9 °F /  31.6 °C 70.9 °F /  21.6 °C 79.9 °F /  26.6 °C
Punto de rocio: 68.4 °F /  20.2 °C 56.1 °F /  13.4 °C 61.3 °F /  16.3 °C
Humedad: 75% 38% 55%
Velocidad viento: 12.5mph /  20.1km/h - 5.8mph /  9.4km/h
Racha viento: 24.2mph /  38.9km/h - -
Viento- - Este
Presión: 29.9 in /  1013.5 hPa 29.9 in /  1011.0 hPa -
Precipitación: 0 in /  0.0 mm    
 
 
Tabla de datos para Agosto 10, 2019
Hora Temperatura Punto de rocio Presión Viento Velocidad viento Racha viento Humedad Intensidad lluvia(por hora) Nubes
00:04 80.1 °F /  26.7 °C 56.1 °F /  13.4 °C 29.9in /  1011.8hPa NE 3.1mph /  5km/h 9.2mph /  14.8km/h 44% 0in /  0.0mm
00:09 79.2 °F /  26.2 °C 56.7 °F /  13.7 °C 29.9in /  1011.8hPa NE 5.4mph /  8.7km/h 4.6mph /  7.4km/h 46% 0in /  0.0mm
00:14 78.6 °F /  25.9 °C 57.9 °F /  14.4 °C 29.9in /  1011.8hPa North 5.4mph /  8.7km/h 4.6mph /  7.4km/h 49% 0in /  0.0mm
00:19 77.7 °F /  25.4 °C 59.7 °F /  15.4 °C 29.9in /  1011.9hPa North 4.3mph /  6.9km/h 6.9mph /  11.1km/h 54% 0in /  0.0mm
00:24 77.2 °F /  25.1 °C 60.3 °F /  15.7 °C 29.9in /  1011.9hPa ENE 4.3mph /  6.9km/h 5.8mph /  9.3km/h 56% 0in /  0.0mm
00:29 76.8 °F /  24.9 °C 61.9 °F /  16.6 °C 29.9in /  1011.9hPa NNE 4mph /  6.4km/h 6.9mph /  11.1km/h 60% 0in /  0.0mm
00:34 76.5 °F /  24.7 °C 63 °F /  17.2 °C 29.9in /  1011.9hPa NE 4mph /  6.4km/h 6.4mph /  10.3km/h 63% 0in /  0.0mm
00:39 76.1 °F /  24.5 °C 63.5 °F /  17.5 °C 29.9in /  1011.9hPa NNE 4.3mph /  6.9km/h 6.9mph /  11.1km/h 65% 0in /  0.0mm
00:44 75.7 °F /  24.3 °C 63.7 °F /  17.6 °C 29.9in /  1011.9hPa NNO 4.3mph /  6.9km/h 6.9mph /  11.1km/h 66% 0in /  0.0mm
00:49 75.6 °F /  24.2 °C 63.3 °F /  17.4 °C 29.9in /  1011.9hPa ENE 4.7mph /  7.6km/h 8.1mph /  13km/h 66% 0in /  0.0mm
00:54 75.6 °F /  24.2 °C 63.9 °F /  17.7 °C 29.9in /  1011.9hPa NE 4.7mph /  7.6km/h 5.8mph /  9.3km/h 67% 0in /  0.0mm
00:59 75.4 °F /  24.1 °C 64 °F /  17.8 °C 29.9in /  1011.9hPa NE 4.3mph /  6.9km/h 10.4mph /  16.7km/h 68% 0in /  0.0mm
01:04 75.2 °F /  24 °C 64.2 °F /  17.9 °C 29.9in /  1012.0hPa NE 4.3mph /  6.9km/h 8.1mph /  13km/h 69% 0in /  0.0mm
01:09 75 °F /  23.9 °C 64.6 °F /  18.1 °C 29.9in /  1012.0hPa NNE 5.4mph /  8.7km/h 8.1mph /  13km/h 70% 0in /  0.0mm
01:14 75 °F /  23.9 °C 65.5 °F /  18.6 °C 29.9in /  1012.0hPa NNE 5.4mph /  8.7km/h 10.4mph /  16.7km/h 72% 0in /  0.0mm
01:19 75 °F /  23.9 °C 65.8 °F /  18.8 °C 29.9in /  1011.9hPa NE 6.4mph /  10.3km/h 10.4mph /  16.7km/h 73% 0in /  0.0mm
01:24 75 °F /  23.9 °C 65.8 °F /  18.8 °C 29.9in /  1011.9hPa NE 6.4mph /  10.3km/h 9.2mph /  14.8km/h 73% 0in /  0.0mm
01:29 75 °F /  23.9 °C 65.8 °F /  18.8 °C 29.9in /  1011.9hPa NNE 5.9mph /  9.5km/h 6.9mph /  11.1km/h 73% 0in /  0.0mm
01:34 74.8 °F /  23.8 °C 65.1 °F /  18.4 °C 29.9in /  1011.9hPa NE 5.9mph /  9.5km/h 6.9mph /  11.1km/h 72% 0in /  0.0mm
01:39 74.8 °F /  23.8 °C 65.1 °F /  18.4 °C 29.9in /  1011.9hPa NE 5.2mph /  8.4km/h 5.9mph /  9.5km/h 72% 0in /  0.0mm
01:44 74.7 °F /  23.7 °C 64.2 °F /  17.9 °C 29.9in /  1011.9hPa NE 5.2mph /  8.4km/h 5.4mph /  8.7km/h 70% 0in /  0.0mm
01:49 74.7 °F /  23.7 °C 63.3 °F /  17.4 °C 29.9in /  1011.8hPa NE 4.3mph /  6.9km/h 6.9mph /  11.1km/h 68% 0in /  0.0mm
01:54 74.7 °F /  23.7 °C 62.4 °F /  16.9 °C 29.9in /  1011.8hPa ENE 4.3mph /  6.9km/h 7.6mph /  12.2km/h 66% 0in /  0.0mm
01:59 74.8 °F /  23.8 °C 62.8 °F /  17.1 °C 29.9in /  1011.8hPa NNE 5.2mph /  8.4km/h 7.4mph /  11.9km/h 66% 0in /  0.0mm
02:04 75 °F /  23.9 °C 62.4 °F /  16.9 °C 29.9in /  1011.8hPa NE 5.2mph /  8.4km/h 6.9mph /  11.1km/h 65% 0in /  0.0mm
02:08 75 °F /  23.9 °C 62.4 °F /  16.9 °C 29.9in /  1011.8hPa NNE 5.2mph /  8.4km/h 4.6mph /  7.4km/h 65% 0in /  0.0mm
02:14 74.8 °F /  23.8 °C 62.8 °F /  17.1 °C 29.9in /  1011.8hPa NE 4.3mph /  6.9km/h 4.6mph /  7.4km/h 66% 0in /  0.0mm
02:19 74.7 °F /  23.7 °C 63 °F /  17.2 °C 29.9in /  1011.8hPa NE 2.9mph /  4.7km/h 4.6mph /  7.4km/h 67% 0in /  0.0mm
02:24 74.7 °F /  23.7 °C 63.3 °F /  17.4 °C 29.9in /  1011.8hPa NE 2.9mph /  4.7km/h 4.6mph /  7.4km/h 68% 0in /  0.0mm
02:29 74.5 °F /  23.6 °C 63.1 °F /  17.3 °C 29.9in /  1011.8hPa NNE 2mph /  3.2km/h 2.4mph /  3.9km/h 68% 0in /  0.0mm
02:34 74.5 °F /  23.6 °C 63.7 °F /  17.6 °C 29.9in /  1011.7hPa NNE 2mph /  3.2km/h 3.5mph /  5.6km/h 69% 0in /  0.0mm
02:39 74.5 °F /  23.6 °C 63.7 °F /  17.6 °C 29.9in /  1011.7hPa NNE 2mph /  3.2km/h 2.9mph /  4.7km/h 69% 0in /  0.0mm
02:44 74.5 °F /  23.6 °C 63.7 °F /  17.6 °C 29.9in /  1011.7hPa NNE 2mph /  3.2km/h 4.6mph /  7.4km/h 69% 0in /  0.0mm
02:49 74.5 °F /  23.6 °C 63.7 °F /  17.6 °C 29.9in /  1011.6hPa North 2.4mph /  3.9km/h 3.5mph /  5.6km/h 69% 0in /  0.0mm
02:54 74.3 °F /  23.5 °C 63.9 °F /  17.7 °C 29.9in /  1011.6hPa NE 2.4mph /  3.9km/h 4.6mph /  7.4km/h 70% 0in /  0.0mm
02:59 74.1 °F /  23.4 °C 63.7 °F /  17.6 °C 29.9in /  1011.6hPa NNE 2.4mph /  3.9km/h 3.5mph /  5.6km/h 70% 0in /  0.0mm
03:04 74.1 °F /  23.4 °C 63.7 °F /  17.6 °C 29.9in /  1011.7hPa NE 2.4mph /  3.9km/h 3.5mph /  5.6km/h 70% 0in /  0.0mm
03:09 74.1 °F /  23.4 °C 63.7 °F /  17.6 °C 29.9in /  1011.7hPa NNE 2mph /  3.2km/h 2.3mph /  3.7km/h 70% 0in /  0.0mm
03:14 73.9 °F /  23.3 °C 63.5 °F /  17.5 °C 29.9in /  1011.7hPa North 2mph /  3.2km/h 3.5mph /  5.6km/h 70% 0in /  0.0mm
03:19 73.9 °F /  23.3 °C 63.9 °F /  17.7 °C 29.9in /  1011.6hPa NNO 2mph /  3.2km/h 2.3mph /  3.7km/h 71% 0in /  0.0mm
03:24 73.8 °F /  23.2 °C 63.3 °F /  17.4 °C 29.9in /  1011.6hPa NNO 2mph /  3.2km/h 3.5mph /  5.6km/h 70% 0in /  0.0mm
03:29 73.6 °F /  23.1 °C 62.4 °F /  16.9 °C 29.9in /  1011.6hPa NNO 1.8mph /  2.9km/h 2.9mph /  4.7km/h 68% 0in /  0.0mm
03:34 73.2 °F /  22.9 °C 61.5 °F /  16.4 °C 29.9in /  1011.8hPa NE 1.8mph /  2.9km/h 4.6mph /  7.4km/h 67% 0in /  0.0mm
03:39 73 °F /  22.8 °C 60.1 °F /  15.6 °C 29.9in /  1011.8hPa NE 3.1mph /  5km/h 4.6mph /  7.4km/h 64% 0in /  0.0mm
03:44 73.2 °F /  22.9 °C 60.3 °F /  15.7 °C 29.9in /  1011.8hPa ENE 3.1mph /  5km/h 3.5mph /  5.6km/h 64% 0in /  0.0mm
03:49 73.2 °F /  22.9 °C 60.3 °F /  15.7 °C 29.9in /  1011.8hPa North 2.4mph /  3.9km/h 5.8mph /  9.3km/h 64% 0in /  0.0mm
03:54 73 °F /  22.8 °C 58.8 °F /  14.9 °C 29.9in /  1011.8hPa NE 2.4mph /  3.9km/h 4.7mph /  7.6km/h 61% 0in /  0.0mm
03:59 73 °F /  22.8 °C 59.2 °F /  15.1 °C 29.9in /  1011.8hPa ENE 3.1mph /  5km/h 3.5mph /  5.6km/h 62% 0in /  0.0mm
04:04 73 °F /  22.8 °C 59.7 °F /  15.4 °C 29.9in /  1011.8hPa NE 3.1mph /  5km/h 4.6mph /  7.4km/h 63% 0in /  0.0mm
04:09 73.2 °F /  22.9 °C 61.2 °F /  16.2 °C 29.9in /  1011.8hPa ENE 2.9mph /  4.7km/h 3.5mph /  5.6km/h 66% 0in /  0.0mm
04:14 73 °F /  22.8 °C 61 °F /  16.1 °C 29.9in /  1011.8hPa ENE 2.9mph /  4.7km/h   66% 0in /  0.0mm
04:19 73 °F /  22.8 °C 59.7 °F /  15.4 °C 29.9in /  1011.9hPa ENE 1.4mph /  2.3km/h   63% 0in /  0.0mm
04:24 73 °F /  22.8 °C 59.2 °F /  15.1 °C 29.9in /  1011.9hPa ENE 1.4mph /  2.3km/h   62% 0in /  0.0mm
04:29 73 °F /  22.8 °C 57.9 °F /  14.4 °C 29.9in /  1011.9hPa Calm   4.6mph /  7.4km/h 59% 0in /  0.0mm
04:34 73.2 °F /  22.9 °C 57 °F /  13.9 °C 29.9in /  1012.0hPa Calm   4.6mph /  7.4km/h 57% 0in /  0.0mm
04:39 73.6 °F /  23.1 °C 57.4 °F /  14.1 °C 29.9in /  1012.0hPa ESE 2.4mph /  3.9km/h 2.9mph /  4.7km/h 57% 0in /  0.0mm
04:44 73.6 °F /  23.1 °C 57.4 °F /  14.1 °C 29.9in /  1012.0hPa ESE 2.4mph /  3.9km/h 2.3mph /  3.7km/h 57% 0in /  0.0mm
04:49 73.6 °F /  23.1 °C 57.4 °F /  14.1 °C 29.9in /  1012.0hPa SE 1.8mph /  2.9km/h 2.3mph /  3.7km/h 57% 0in /  0.0mm
04:54 73.6 °F /  23.1 °C 59.4 °F /  15.2 °C 29.9in /  1012.0hPa NE 1.8mph /  2.9km/h 3.5mph /  5.6km/h 61% 0in /  0.0mm
04:59 73.2 °F /  22.9 °C 59 °F /  15 °C 29.9in /  1012.0hPa NE 1.8mph /  2.9km/h 2.3mph /  3.7km/h 61% 0in /  0.0mm
05:04 73 °F /  22.8 °C 58.8 °F /  14.9 °C 29.9in /  1012.1hPa NE 1.8mph /  2.9km/h   61% 0in /  0.0mm
05:09 72.9 °F /  22.7 °C 58.3 °F /  14.6 °C 29.9in /  1012.1hPa Calm   2.9mph /  4.7km/h 60% 0in /  0.0mm
05:14 72.9 °F /  22.7 °C 58.3 °F /  14.6 °C 29.9in /  1012.1hPa Calm   3.5mph /  5.6km/h 60% 0in /  0.0mm
05:19 73 °F /  22.8 °C 58.3 °F /  14.6 °C 29.9in /  1012.1hPa SSO 2.4mph /  3.9km/h 4.6mph /  7.4km/h 60% 0in /  0.0mm
05:24 73 °F /  22.8 °C 58.3 °F /  14.6 °C 29.9in /  1012.1hPa SSO 2.4mph /  3.9km/h 3.5mph /  5.6km/h 60% 0in /  0.0mm
05:29 73.2 °F /  22.9 °C 58.5 °F /  14.7 °C 29.9in /  1012.1hPa SSO 2.4mph /  3.9km/h 2.3mph /  3.7km/h 60% 0in /  0.0mm
05:34 73.2 °F /  22.9 °C 58.5 °F /  14.7 °C 29.9in /  1012.2hPa SSO 2.4mph /  3.9km/h 3.5mph /  5.6km/h 60% 0in /  0.0mm
05:39 73.4 °F /  23 °C 58.6 °F /  14.8 °C 29.9in /  1012.2hPa SSO 1.8mph /  2.9km/h 2.3mph /  3.7km/h 60% 0in /  0.0mm
05:44 73.2 °F /  22.9 °C 58.5 °F /  14.7 °C 29.9in /  1012.2hPa SSO 1.8mph /  2.9km/h 5.8mph /  9.3km/h 60% 0in /  0.0mm
05:49 73 °F /  22.8 °C 59.2 °F /  15.1 °C 29.9in /  1012.3hPa SSO 2mph /  3.2km/h 2.9mph /  4.7km/h 62% 0in /  0.0mm
05:54 72.9 °F /  22.7 °C 59.2 °F /  15.1 °C 29.9in /  1012.3hPa ONO 2mph /  3.2km/h 2.3mph /  3.7km/h 62% 0in /  0.0mm
05:59 72.7 °F /  22.6 °C 59.4 °F /  15.2 °C 29.9in /  1012.3hPa Oeste 1.4mph /  2.3km/h 3.5mph /  5.6km/h 63% 0in /  0.0mm
06:04 72.5 °F /  22.5 °C 59.2 °F /  15.1 °C 29.9in /  1012.4hPa Oeste 1.4mph /  2.3km/h 3.6mph /  5.8km/h 63% 0in /  0.0mm
06:09 72.3 °F /  22.4 °C 59 °F /  15 °C 29.9in /  1012.4hPa Oeste 2.4mph /  3.9km/h 3.5mph /  5.6km/h 63% 0in /  0.0mm
06:14 72.3 °F /  22.4 °C 59 °F /  15 °C 29.9in /  1012.4hPa Oeste 2.4mph /  3.9km/h 2.4mph /  3.9km/h 63% 0in /  0.0mm
06:19 72.3 °F /  22.4 °C 58.6 °F /  14.8 °C 29.9in /  1012.5hPa Oeste 2mph /  3.2km/h 2mph /  3.2km/h 62% 0in /  0.0mm
06:24 72.3 °F /  22.4 °C 58.1 °F /  14.5 °C 29.9in /  1012.5hPa Oeste 2mph /  3.2km/h 2.3mph /  3.7km/h 61% 0in /  0.0mm
06:29 72.3 °F /  22.4 °C 57.7 °F /  14.3 °C 29.9in /  1012.5hPa SSO 1.8mph /  2.9km/h 4.6mph /  7.4km/h 60% 0in /  0.0mm
06:34 72.3 °F /  22.4 °C 58.1 °F /  14.5 °C 29.9in /  1012.7hPa NO 1.8mph /  2.9km/h 2.3mph /  3.7km/h 61% 0in /  0.0mm
06:39 72.3 °F /  22.4 °C 58.1 °F /  14.5 °C 29.9in /  1012.7hPa NO 1.8mph /  2.9km/h   61% 0in /  0.0mm
06:44 72.3 °F /  22.4 °C 58.1 °F /  14.5 °C 29.9in /  1012.7hPa NO 1.8mph /  2.9km/h   61% 0in /  0.0mm
06:49 72.1 °F /  22.3 °C 57.9 °F /  14.4 °C 29.9in /  1012.7hPa Calm   3.5mph /  5.6km/h 61% 0in /  0.0mm
06:54 71.4 °F /  21.9 °C 57.4 °F /  14.1 °C 29.9in /  1012.7hPa Calm   4.6mph /  7.4km/h 61% 0in /  0.0mm
06:59 71.1 °F /  21.7 °C 57.4 °F /  14.1 °C 29.9in /  1012.7hPa Este 2.9mph /  4.7km/h 3.1mph /  5km/h 62% 0in /  0.0mm
07:04 70.9 °F /  21.6 °C 57.2 °F /  14 °C 29.9in /  1012.7hPa Este 2.9mph /  4.7km/h   62% 0in /  0.0mm
07:09 70.9 °F /  21.6 °C 57.2 °F /  14 °C 29.9in /  1012.7hPa Calm   3.5mph /  5.6km/h 62% 0in /  0.0mm
07:14 70.9 °F /  21.6 °C 57.2 °F /  14 °C 29.9in /  1012.7hPa Calm   4mph /  6.4km/h 62% 0in /  0.0mm
07:19 70.9 °F /  21.6 °C 56.8 °F /  13.8 °C 29.9in /  1012.8hPa SE 2.9mph /  4.7km/h 4.6mph /  7.4km/h 61% 0in /  0.0mm
07:24 71.1 °F /  21.7 °C 56.8 °F /  13.8 °C 29.9in /  1012.8hPa SE 2.9mph /  4.7km/h 2.3mph /  3.7km/h 61% 0in /  0.0mm
07:29 71.1 °F /  21.7 °C 56.8 °F /  13.8 °C 29.9in /  1012.8hPa Sur 1.8mph /  2.9km/h 3.5mph /  5.6km/h 61% 0in /  0.0mm
07:34 71.2 °F /  21.8 °C 57 °F /  13.9 °C 29.9in /  1012.7hPa SSE 1.8mph /  2.9km/h 4.6mph /  7.4km/h 61% 0in /  0.0mm
07:39 71.6 °F /  22 °C 57 °F /  13.9 °C 29.9in /  1012.7hPa SE 2.9mph /  4.7km/h 2.3mph /  3.7km/h 60% 0in /  0.0mm
07:44 72 °F /  22.2 °C 57.4 °F /  14.1 °C 29.9in /  1012.7hPa SE 2.9mph /  4.7km/h 3.5mph /  5.6km/h 60% 0in /  0.0mm
07:49 72.1 °F /  22.3 °C 57 °F /  13.9 °C 29.9in /  1012.8hPa SSE 1.4mph /  2.3km/h 2.3mph /  3.7km/h 59% 0in /  0.0mm
07:54 72.3 °F /  22.4 °C 57.2 °F /  14 °C 29.9in /  1012.8hPa SSE 1.4mph /  2.3km/h 3.5mph /  5.6km/h 59% 0in /  0.0mm
07:59 72.7 °F /  22.6 °C 57.6 °F /  14.2 °C 29.9in /  1012.8hPa SSE 2mph /  3.2km/h 3.5mph /  5.6km/h 59% 0in /  0.0mm
08:04 72.9 °F /  22.7 °C 57.7 °F /  14.3 °C 29.9in /  1012.9hPa SSE 2mph /  3.2km/h 3.1mph /  5km/h 59% 0in /  0.0mm
08:09 73.2 °F /  22.9 °C 57.9 °F /  14.4 °C 29.9in /  1012.9hPa SSE 2mph /  3.2km/h 4.6mph /  7.4km/h 59% 0in /  0.0mm
08:14 73.2 °F /  22.9 °C 57.9 °F /  14.4 °C 29.9in /  1012.9hPa Sur 2mph /  3.2km/h 4.6mph /  7.4km/h 59% 0in /  0.0mm
08:19 73 °F /  22.8 °C 57.9 °F /  14.4 °C 29.9in /  1013.1hPa SSE 3.1mph /  5km/h 4.7mph /  7.6km/h 59% 0in /  0.0mm
08:24 73 °F /  22.8 °C 57.9 °F /  14.4 °C 29.9in /  1013.1hPa Sur 3.1mph /  5km/h 4.6mph /  7.4km/h 59% 0in /  0.0mm
08:29 73.4 °F /  23 °C 58.3 °F /  14.6 °C 29.9in /  1013.1hPa SSE 3.1mph /  5km/h 3.5mph /  5.6km/h 59% 0in /  0.0mm
08:34 73.8 °F /  23.2 °C 58.5 °F /  14.7 °C 29.9in /  1013.2hPa SSE 3.1mph /  5km/h 4.6mph /  7.4km/h 59% 0in /  0.0mm
08:39 74.1 °F /  23.4 °C 58.8 °F /  14.9 °C 29.9in /  1013.2hPa SSE 2.4mph /  3.9km/h 3.5mph /  5.6km/h 59% 0in /  0.0mm
08:44 74.5 °F /  23.6 °C 61.5 °F /  16.4 °C 29.9in /  1013.2hPa SO 2.4mph /  3.9km/h 2.3mph /  3.7km/h 64% 0in /  0.0mm
08:49 74.7 °F /  23.7 °C 59.4 °F /  15.2 °C 29.9in /  1013.2hPa Sur 2.4mph /  3.9km/h 4.7mph /  7.6km/h 59% 0in /  0.0mm
08:54 74.7 °F /  23.7 °C 59.9 °F /  15.5 °C 29.9in /  1013.2hPa Sur 2.4mph /  3.9km/h 5.8mph /  9.3km/h 60% 0in /  0.0mm
08:59 74.7 °F /  23.7 °C 59.9 °F /  15.5 °C 29.9in /  1013.2hPa SE 4mph /  6.4km/h 5.8mph /  9.3km/h 60% 0in /  0.0mm
09:04 75 °F /  23.9 °C 60.6 °F /  15.9 °C 29.9in /  1013.4hPa SSE 4mph /  6.4km/h 5.9mph /  9.5km/h 61% 0in /  0.0mm
09:09 75 °F /  23.9 °C 60.6 °F /  15.9 °C 29.9in /  1013.4hPa SE 4mph /  6.4km/h 8.1mph /  13km/h 61% 0in /  0.0mm
09:14 75.2 °F /  24 °C 61.3 °F /  16.3 °C 29.9in /  1013.4hPa Sur 4mph /  6.4km/h 4.6mph /  7.4km/h 62% 0in /  0.0mm
09:19 75.7 °F /  24.3 °C 61.9 °F /  16.6 °C 29.9in /  1013.5hPa Sur 3.6mph /  5.8km/h 5.8mph /  9.3km/h 62% 0in /  0.0mm
09:24 75.9 °F /  24.4 °C 62.1 °F /  16.7 °C 29.9in /  1013.5hPa SSE 3.6mph /  5.8km/h 4.6mph /  7.4km/h 62% 0in /  0.0mm
09:29 76.3 °F /  24.6 °C 62.2 °F /  16.8 °C 29.9in /  1013.5hPa SSO 3.1mph /  5km/h 3.5mph /  5.6km/h 62% 0in /  0.0mm
09:34 76.5 °F /  24.7 °C 62.4 °F /  16.9 °C 29.9in /  1013.4hPa OSO 3.1mph /  5km/h 4.6mph /  7.4km/h 62% 0in /  0.0mm
09:39 76.8 °F /  24.9 °C 62.2 °F /  16.8 °C 29.9in /  1013.4hPa OSO 2.4mph /  3.9km/h 4.6mph /  7.4km/h 61% 0in /  0.0mm
09:44 77.4 °F /  25.2 °C 63 °F /  17.2 °C 29.9in /  1013.4hPa NO 2.4mph /  3.9km/h 4.6mph /  7.4km/h 61% 0in /  0.0mm
09:49 77.5 °F /  25.3 °C 62.6 °F /  17 °C 29.9in /  1013.4hPa ONO 2.4mph /  3.9km/h 4.6mph /  7.4km/h 60% 0in /  0.0mm
09:54 77.9 °F /  25.5 °C 63 °F /  17.2 °C 29.9in /  1013.4hPa NNE 2.4mph /  3.9km/h 4.3mph /  6.9km/h 60% 0in /  0.0mm
09:59 78.4 °F /  25.8 °C 63.3 °F /  17.4 °C 29.9in /  1013.4hPa ENE 2.4mph /  3.9km/h 4.6mph /  7.4km/h 60% 0in /  0.0mm
10:04 79.2 °F /  26.2 °C 63.7 °F /  17.6 °C 29.9in /  1013.3hPa NE 2.4mph /  3.9km/h 3.1mph /  5km/h 59% 0in /  0.0mm
10:09 79.3 °F /  26.3 °C 63.9 °F /  17.7 °C 29.9in /  1013.3hPa NNE 2.9mph /  4.7km/h 5.8mph /  9.3km/h 59% 0in /  0.0mm
10:14 79.3 °F /  26.3 °C 63.9 °F /  17.7 °C 29.9in /  1013.3hPa ESE 2.9mph /  4.7km/h 6.9mph /  11.1km/h 59% 0in /  0.0mm
10:19 79.5 °F /  26.4 °C 63 °F /  17.2 °C 29.9in /  1013.4hPa NE 4.3mph /  6.9km/h 7.4mph /  11.9km/h 57% 0in /  0.0mm
10:24 79.5 °F /  26.4 °C 63.3 °F /  17.4 °C 29.9in /  1013.4hPa NNE 4.3mph /  6.9km/h 8.1mph /  13km/h 58% 0in /  0.0mm
10:29 79.5 °F /  26.4 °C 63.3 °F /  17.4 °C 29.9in /  1013.4hPa ENE 5.2mph /  8.4km/h 8.1mph /  13km/h 58% 0in /  0.0mm
10:34 79.7 °F /  26.5 °C 63.1 °F /  17.3 °C 29.9in /  1013.4hPa NE 5.2mph /  8.4km/h 6.9mph /  11.1km/h 57% 0in /  0.0mm
10:39 79.9 °F /  26.6 °C 63.9 °F /  17.7 °C 29.9in /  1013.4hPa NE 4.7mph /  7.6km/h 6.4mph /  10.3km/h 58% 0in /  0.0mm
10:44 80.1 °F /  26.7 °C 63 °F /  17.2 °C 29.9in /  1013.4hPa NE 4.7mph /  7.6km/h 9.7mph /  15.6km/h 56% 0in /  0.0mm
10:49 80.2 °F /  26.8 °C 63.1 °F /  17.3 °C 29.9in /  1013.4hPa NNE 4.7mph /  7.6km/h 6.9mph /  11.1km/h 56% 0in /  0.0mm
10:54 80.4 °F /  26.9 °C 62.8 °F /  17.1 °C 29.9in /  1013.4hPa NNO 4.7mph /  7.6km/h 8.1mph /  13km/h 55% 0in /  0.0mm
10:59 81 °F /  27.2 °C 62.8 °F /  17.1 °C 29.9in /  1013.4hPa ENE 5.4mph /  8.7km/h 9.2mph /  14.8km/h 54% 0in /  0.0mm
11:04 81.1 °F /  27.3 °C 63 °F /  17.2 °C 29.9in /  1013.3hPa ENE 5.4mph /  8.7km/h 4.7mph /  7.6km/h 54% 0in /  0.0mm
11:09 81.5 °F /  27.5 °C 63.3 °F /  17.4 °C 29.9in /  1013.3hPa ENE 5.2mph /  8.4km/h 8.1mph /  13km/h 54% 0in /  0.0mm
11:14 81.9 °F /  27.7 °C 63.7 °F /  17.6 °C 29.9in /  1013.3hPa Este 5.2mph /  8.4km/h 8.1mph /  13km/h 54% 0in /  0.0mm
11:19 82 °F /  27.8 °C 63.1 °F /  17.3 °C 29.9in /  1013.1hPa NNE 5.4mph /  8.7km/h 10.4mph /  16.7km/h 53% 0in /  0.0mm
11:24 82.2 °F /  27.9 °C 63.3 °F /  17.4 °C 29.9in /  1013.1hPa North 5.4mph /  8.7km/h 10.4mph /  16.7km/h 53% 0in /  0.0mm
11:29 82.4 °F /  28 °C 62.4 °F /  16.9 °C 29.9in /  1013.1hPa NE 6.2mph /  10km/h 10.4mph /  16.7km/h 51% 0in /  0.0mm
11:34 82.2 °F /  27.9 °C 62.8 °F /  17.1 °C 29.9in /  1013.1hPa NE 6.2mph /  10km/h 10.4mph /  16.7km/h 52% 0in /  0.0mm
11:39 82.6 °F /  28.1 °C 63.1 °F /  17.3 °C 29.9in /  1013.1hPa NNE 7.4mph /  11.9km/h 9.2mph /  14.8km/h 52% 0in /  0.0mm
11:44 82.8 °F /  28.2 °C 63.3 °F /  17.4 °C 29.9in /  1013.1hPa Este 7.4mph /  11.9km/h 7.4mph /  11.9km/h 52% 0in /  0.0mm
11:49 83.7 °F /  28.7 °C 63 °F /  17.2 °C 29.9in /  1013.1hPa ENE 6.2mph /  10km/h 10.4mph /  16.7km/h 50% 0in /  0.0mm
11:54 83.7 °F /  28.7 °C 63 °F /  17.2 °C 29.9in /  1013.1hPa NE 6.2mph /  10km/h 15mph /  24.1km/h 50% 0in /  0.0mm
11:59 83.8 °F /  28.8 °C 63.1 °F /  17.3 °C 29.9in /  1013.1hPa North 8.5mph /  13.7km/h 10.4mph /  16.7km/h 50% 0in /  0.0mm
12:04 84.6 °F /  29.2 °C 58.8 °F /  14.9 °C 29.9in /  1013.2hPa NE 8.5mph /  13.7km/h 13.8mph /  22.2km/h 42% 0in /  0.0mm
12:09 85.5 °F /  29.7 °C 59.2 °F /  15.1 °C 29.9in /  1013.2hPa Este 6.2mph /  10km/h 9.2mph /  14.8km/h 41% 0in /  0.0mm
12:14 85.6 °F /  29.8 °C 58.5 °F /  14.7 °C 29.9in /  1013.2hPa NNE 6.2mph /  10km/h 13.8mph /  22.2km/h 40% 0in /  0.0mm
12:19 85.3 °F /  29.6 °C 58.8 °F /  14.9 °C 29.9in /  1013.2hPa NNE 8.7mph /  14km/h 12.7mph /  20.4km/h 41% 0in /  0.0mm
12:24 85.5 °F /  29.7 °C 58.5 °F /  14.7 °C 29.9in /  1013.2hPa ENE 8.7mph /  14km/h 15.6mph /  25.1km/h 40% 0in /  0.0mm
12:29 85.6 °F /  29.8 °C 58.5 °F /  14.7 °C 29.9in /  1013.2hPa ENE 8.5mph /  13.7km/h 9.2mph /  14.8km/h 40% 0in /  0.0mm
12:34 86 °F /  30 °C 58.8 °F /  14.9 °C 29.9in /  1013.2hPa ENE 8.5mph /  13.7km/h 15mph /  24.1km/h 40% 0in /  0.0mm
12:39 85.8 °F /  29.9 °C 57.9 °F /  14.4 °C 29.9in /  1013.2hPa SE 8.5mph /  13.7km/h 11.5mph /  18.5km/h 39% 0in /  0.0mm
12:44 86.2 °F /  30.1 °C 57.6 °F /  14.2 °C 29.9in /  1013.2hPa NE 8.5mph /  13.7km/h 15.9mph /  25.6km/h 38% 0in /  0.0mm
12:49 85.8 °F /  29.9 °C 57.9 °F /  14.4 °C 29.9in /  1013.2hPa NE 9.7mph /  15.6km/h 11.5mph /  18.5km/h 39% 0in /  0.0mm
12:54 86.2 °F /  30.1 °C 58.3 °F /  14.6 °C 29.9in /  1013.2hPa ENE 9.7mph /  15.6km/h 16.1mph /  25.9km/h 39% 0in /  0.0mm
12:59 86.4 °F /  30.2 °C 58.5 °F /  14.7 °C 29.9in /  1013.2hPa NE 8.1mph /  13km/h 18.4mph /  29.6km/h 39% 0in /  0.0mm
13:04 86.2 °F /  30.1 °C 58.3 °F /  14.6 °C 29.9in /  1013.1hPa NE 8.1mph /  13km/h 12.7mph /  20.4km/h 39% 0in /  0.0mm
13:09 86.2 °F /  30.1 °C 58.3 °F /  14.6 °C 29.9in /  1013.1hPa NNE 10.7mph /  17.2km/h 17.3mph /  27.8km/h 39% 0in /  0.0mm
13:14 86 °F /  30 °C 58.8 °F /  14.9 °C 29.9in /  1013.1hPa North 10.7mph /  17.2km/h 15mph /  24.1km/h 40% 0in /  0.0mm
13:19 86.4 °F /  30.2 °C 58.5 °F /  14.7 °C 29.9in /  1013.0hPa NE 11.2mph /  18km/h 11.5mph /  18.5km/h 39% 0in /  0.0mm
13:24 86.4 °F /  30.2 °C 59.2 °F /  15.1 °C 29.9in /  1013.0hPa ENE 11.2mph /  18km/h 11.5mph /  18.5km/h 40% 0in /  0.0mm
13:29 86.5 °F /  30.3 °C 59.4 °F /  15.2 °C 29.9in /  1013.0hPa NNE 8.7mph /  14km/h 15mph /  24.1km/h 40% 0in /  0.0mm
13:34 86.5 °F /  30.3 °C 60.1 °F /  15.6 °C 29.9in /  1012.9hPa NE 8.7mph /  14km/h 15mph /  24.1km/h 41% 0in /  0.0mm
13:39 86.9 °F /  30.5 °C 60.4 °F /  15.8 °C 29.9in /  1012.9hPa ENE 8.7mph /  14km/h 17.3mph /  27.8km/h 41% 0in /  0.0mm
13:44 86.5 °F /  30.3 °C 60.1 °F /  15.6 °C 29.9in /  1012.9hPa NNE 8.7mph /  14km/h 10.4mph /  16.7km/h 41% 0in /  0.0mm
13:49 87.3 °F /  30.7 °C 60.1 °F /  15.6 °C 29.9in /  1012.9hPa NE 7.6mph /  12.2km/h 11.5mph /  18.5km/h 40% 0in /  0.0mm
13:54 86.7 °F /  30.4 °C 60.3 °F /  15.7 °C 29.9in /  1012.9hPa NE 7.6mph /  12.2km/h 12.7mph /  20.4km/h 41% 0in /  0.0mm
13:59 87.3 °F /  30.7 °C 60.1 °F /  15.6 °C 29.9in /  1012.9hPa NE 8.5mph /  13.7km/h 14.5mph /  23.3km/h 40% 0in /  0.0mm
14:04 87.6 °F /  30.9 °C 58.8 °F /  14.9 °C 29.9in /  1012.8hPa NE 8.5mph /  13.7km/h 12.7mph /  20.4km/h 38% 0in /  0.0mm
14:09 87.3 °F /  30.7 °C 58.6 °F /  14.8 °C 29.9in /  1012.8hPa NE 8.7mph /  14km/h 14mph /  22.5km/h 38% 0in /  0.0mm
14:14 87.1 °F /  30.6 °C 59.2 °F /  15.1 °C 29.9in /  1012.8hPa ENE 8.7mph /  14km/h 12.5mph /  20.1km/h 39% 0in /  0.0mm
14:19 87.4 °F /  30.8 °C 59.4 °F /  15.2 °C 29.9in /  1012.6hPa NNE 10mph /  16.1km/h 16.1mph /  25.9km/h 39% 0in /  0.0mm
14:24 87.3 °F /  30.7 °C 59.4 °F /  15.2 °C 29.9in /  1012.6hPa NNE 10mph /  16.1km/h 12.7mph /  20.4km/h 39% 0in /  0.0mm
14:29 87.6 °F /  30.9 °C 59.5 °F /  15.3 °C 29.9in /  1012.6hPa NE 10mph /  16.1km/h 15.9mph /  25.6km/h 39% 0in /  0.0mm
14:34 87.6 °F /  30.9 °C 59.5 °F /  15.3 °C 29.9in /  1012.4hPa ENE 10mph /  16.1km/h 16.1mph /  25.9km/h 39% 0in /  0.0mm
14:39 87.6 °F /  30.9 °C 59.5 °F /  15.3 °C 29.9in /  1012.4hPa ENE 10.7mph /  17.2km/h 16.1mph /  25.9km/h 39% 0in /  0.0mm
14:44 87.6 °F /  30.9 °C 60.3 °F /  15.7 °C 29.9in /  1012.4hPa NNE 10.7mph /  17.2km/h 16.1mph /  25.9km/h 40% 0in /  0.0mm
14:49 88 °F /  31.1 °C 59.9 °F /  15.5 °C 29.9in /  1012.2hPa ENE 10mph /  16.1km/h 16.1mph /  25.9km/h 39% 0in /  0.0mm
14:54 87.6 °F /  30.9 °C 59.5 °F /  15.3 °C 29.9in /  1012.2hPa North 10mph /  16.1km/h 13.8mph /  22.2km/h 39% 0in /  0.0mm
14:59 87.8 °F /  31 °C 59.7 °F /  15.4 °C 29.9in /  1012.2hPa NNE 9.2mph /  14.8km/h 12.7mph /  20.4km/h 39% 0in /  0.0mm
15:04 88.2 °F /  31.2 °C 61.5 °F /  16.4 °C 29.9in /  1012.2hPa NNE 9.2mph /  14.8km/h 12.7mph /  20.4km/h 41% 0in /  0.0mm
15:09 88.2 °F /  31.2 °C 60.8 °F /  16 °C 29.9in /  1012.2hPa NNE 8.7mph /  14km/h 15.2mph /  24.5km/h 40% 0in /  0.0mm
15:14 88.3 °F /  31.3 °C 61 °F /  16.1 °C 29.9in /  1012.2hPa Este 8.7mph /  14km/h 9.2mph /  14.8km/h 40% 0in /  0.0mm
15:19 88.5 °F /  31.4 °C 61.2 °F /  16.2 °C 29.9in /  1012.1hPa NNO 8.1mph /  13km/h 6.9mph /  11.1km/h 40% 0in /  0.0mm
15:24 88.3 °F /  31.3 °C 61 °F /  16.1 °C 29.9in /  1012.1hPa NNE 8.1mph /  13km/h 15mph /  24.1km/h 40% 0in /  0.0mm
15:29 87.6 °F /  30.9 °C 61 °F /  16.1 °C 29.9in /  1012.1hPa NE 10mph /  16.1km/h 8.7mph /  14km/h 41% 0in /  0.0mm
15:34 88.3 °F /  31.3 °C 61.7 °F /  16.5 °C 29.9in /  1012.0hPa ENE 10mph /  16.1km/h 13.8mph /  22.2km/h 41% 0in /  0.0mm
15:39 88.2 °F /  31.2 °C 61.5 °F /  16.4 °C 29.9in /  1012.0hPa Este 9.2mph /  14.8km/h 10.4mph /  16.7km/h 41% 0in /  0.0mm
15:44 88.3 °F /  31.3 °C 61.7 °F /  16.5 °C 29.9in /  1012.0hPa NE 9.2mph /  14.8km/h 18.4mph /  29.6km/h 41% 0in /  0.0mm
15:49 88.2 °F /  31.2 °C 62.2 °F /  16.8 °C 29.9in /  1011.9hPa NNE 9.7mph /  15.6km/h 12.7mph /  20.4km/h 42% 0in /  0.0mm
15:54 88.3 °F /  31.3 °C 61.7 °F /  16.5 °C 29.9in /  1011.9hPa NNE 9.7mph /  15.6km/h 9.2mph /  14.8km/h 41% 0in /  0.0mm
15:59 88.5 °F /  31.4 °C 61.9 °F /  16.6 °C 29.9in /  1011.9hPa NE 8.1mph /  13km/h 10.7mph /  17.2km/h 41% 0in /  0.0mm
16:04 88.5 °F /  31.4 °C 61.2 °F /  16.2 °C 29.9in /  1011.7hPa ENE 8.1mph /  13km/h 13.8mph /  22.2km/h 40% 0in /  0.0mm
16:09 88.7 °F /  31.5 °C 61.3 °F /  16.3 °C 29.9in /  1011.7hPa ENE 8.7mph /  14km/h 14.7mph /  23.7km/h 40% 0in /  0.0mm
16:14 88.9 °F /  31.6 °C 61.3 °F /  16.3 °C 29.9in /  1011.7hPa NE 8.7mph /  14km/h 12.7mph /  20.4km/h 40% 0in /  0.0mm
16:19 88.3 °F /  31.3 °C 61 °F /  16.1 °C 29.9in /  1011.6hPa ENE 9.2mph /  14.8km/h 12.7mph /  20.4km/h 40% 0in /  0.0mm
16:24 88.5 °F /  31.4 °C 61.2 °F /  16.2 °C 29.9in /  1011.6hPa NNE 9.2mph /  14.8km/h 11.5mph /  18.5km/h 40% 0in /  0.0mm
16:29 88.5 °F /  31.4 °C 60.4 °F /  15.8 °C 29.9in /  1011.6hPa Este 8.5mph /  13.7km/h 12.7mph /  20.4km/h 39% 0in /  0.0mm
16:34 88.3 °F /  31.3 °C 61 °F /  16.1 °C 29.9in /  1011.5hPa NE 8.5mph /  13.7km/h 12.7mph /  20.4km/h 40% 0in /  0.0mm
16:39 88.2 °F /  31.2 °C 60.8 °F /  16 °C 29.9in /  1011.5hPa NE 10mph /  16.1km/h 17.3mph /  27.8km/h 40% 0in /  0.0mm
16:44 88.2 °F /  31.2 °C 60.1 °F /  15.6 °C 29.9in /  1011.5hPa North 10mph /  16.1km/h 12.7mph /  20.4km/h 39% 0in /  0.0mm
16:49 88 °F /  31.1 °C 59.9 °F /  15.5 °C 29.9in /  1011.5hPa NE 10.2mph /  16.4km/h 13.8mph /  22.2km/h 39% 0in /  0.0mm
16:54 88.2 °F /  31.2 °C 60.1 °F /  15.6 °C 29.9in /  1011.5hPa ENE 10.2mph /  16.4km/h 17.3mph /  27.8km/h 39% 0in /  0.0mm
16:59 88.2 °F /  31.2 °C 60.1 °F /  15.6 °C 29.9in /  1011.5hPa Este 9.7mph /  15.6km/h 12.3mph /  19.8km/h 39% 0in /  0.0mm
17:04 88.3 °F /  31.3 °C 60.3 °F /  15.7 °C 29.9in /  1011.5hPa NNE 9.7mph /  15.6km/h 15mph /  24.1km/h 39% 0in /  0.0mm
17:09 88.3 °F /  31.3 °C 59.5 °F /  15.3 °C 29.9in /  1011.5hPa ENE 9.7mph /  15.6km/h 15mph /  24.1km/h 38% 0in /  0.0mm
17:14 88.3 °F /  31.3 °C 59.5 °F /  15.3 °C 29.9in /  1011.5hPa NNE 9.7mph /  15.6km/h 13.8mph /  22.2km/h 38% 0in /  0.0mm
17:19 88.7 °F /  31.5 °C 59.7 °F /  15.4 °C 29.9in /  1011.3hPa NNE 8.7mph /  14km/h 10.2mph /  16.4km/h 38% 0in /  0.0mm
17:24 88.5 °F /  31.4 °C 59.7 °F /  15.4 °C 29.9in /  1011.3hPa ENE 8.7mph /  14km/h 14.7mph /  23.7km/h 38% 0in /  0.0mm
17:29 88.2 °F /  31.2 °C 60.1 °F /  15.6 °C 29.9in /  1011.3hPa NE 10.2mph /  16.4km/h 16.1mph /  25.9km/h 39% 0in /  0.0mm
17:34 88.2 °F /  31.2 °C 60.8 °F /  16 °C 29.9in /  1011.3hPa NE 10.2mph /  16.4km/h 16.1mph /  25.9km/h 40% 0in /  0.0mm
17:39 88.2 °F /  31.2 °C 60.8 °F /  16 °C 29.9in /  1011.3hPa NE 10.7mph /  17.2km/h 16.1mph /  25.9km/h 40% 0in /  0.0mm
17:44 88.2 °F /  31.2 °C 60.8 °F /  16 °C 29.9in /  1011.3hPa ENE 10.7mph /  17.2km/h 10.4mph /  16.7km/h 40% 0in /  0.0mm
17:49 88.3 °F /  31.3 °C 61 °F /  16.1 °C 29.9in /  1011.2hPa NE 8.7mph /  14km/h 18.4mph /  29.6km/h 40% 0in /  0.0mm
17:54 88 °F /  31.1 °C 61.3 °F /  16.3 °C 29.9in /  1011.2hPa NNE 8.7mph /  14km/h 15.2mph /  24.5km/h 41% 0in /  0.0mm
17:59 88 °F /  31.1 °C 61.3 °F /  16.3 °C 29.9in /  1011.2hPa NNE 10mph /  16.1km/h 14.5mph /  23.3km/h 41% 0in /  0.0mm
18:04 87.6 °F /  30.9 °C 61 °F /  16.1 °C 29.9in /  1011.2hPa NNE 10mph /  16.1km/h 18.4mph /  29.6km/h 41% 0in /  0.0mm
18:09 87.6 °F /  30.9 °C 61.7 °F /  16.5 °C 29.9in /  1011.2hPa NE 10.2mph /  16.4km/h 18.4mph /  29.6km/h 42% 0in /  0.0mm
18:14 87.3 °F /  30.7 °C 60.6 °F /  15.9 °C 29.9in /  1011.2hPa NE 10.2mph /  16.4km/h 13.8mph /  22.2km/h 41% 0in /  0.0mm
18:19 87.1 °F /  30.6 °C 61.2 °F /  16.2 °C 29.9in /  1011.3hPa North 12.5mph /  20.1km/h 20.7mph /  33.3km/h 42% 0in /  0.0mm
18:24 87.1 °F /  30.6 °C 60.4 °F /  15.8 °C 29.9in /  1011.3hPa ENE 12.5mph /  20.1km/h 19.6mph /  31.5km/h 41% 0in /  0.0mm
18:29 86.7 °F /  30.4 °C 60.3 °F /  15.7 °C 29.9in /  1011.3hPa NNE 12.3mph /  19.8km/h 18.4mph /  29.6km/h 41% 0in /  0.0mm
18:34 86.5 °F /  30.3 °C 60.1 °F /  15.6 °C 29.9in /  1011.2hPa NE 12.3mph /  19.8km/h 20.7mph /  33.3km/h 41% 0in /  0.0mm
18:39 86.7 °F /  30.4 °C 59.5 °F /  15.3 °C 29.9in /  1011.2hPa NE 12.3mph /  19.8km/h 16.1mph /  25.9km/h 40% 0in /  0.0mm
18:44 86.5 °F /  30.3 °C 59.4 °F /  15.2 °C 29.9in /  1011.2hPa NE 12.3mph /  19.8km/h 20.7mph /  33.3km/h 40% 0in /  0.0mm
18:49 86.5 °F /  30.3 °C 59.4 °F /  15.2 °C 29.9in /  1011.0hPa NE 11.8mph /  19km/h 24.2mph /  38.9km/h 40% 0in /  0.0mm
18:54 86.5 °F /  30.3 °C 60.1 °F /  15.6 °C 29.9in /  1011.0hPa NNE 11.8mph /  19km/h 18.4mph /  29.6km/h 41% 0in /  0.0mm
18:59 86.4 °F /  30.2 °C 59.9 °F /  15.5 °C 29.9in /  1011.0hPa ENE 11.8mph /  19km/h 20.7mph /  33.3km/h 41% 0in /  0.0mm
19:04 86.2 °F /  30.1 °C 60.4 °F /  15.8 °C 29.9in /  1011.2hPa ENE 11.8mph /  19km/h 18.4mph /  29.6km/h 42% 0in /  0.0mm
19:09 86 °F /  30 °C 60.3 °F /  15.7 °C 29.9in /  1011.2hPa ESE 10.7mph /  17.2km/h 15mph /  24.1km/h 42% 0in /  0.0mm
19:14 85.6 °F /  29.8 °C 59.9 °F /  15.5 °C 29.9in /  1011.2hPa NE 10.7mph /  17.2km/h 16.1mph /  25.9km/h 42% 0in /  0.0mm
19:19 85.6 °F /  29.8 °C 60.6 °F /  15.9 °C 29.9in /  1011.2hPa ENE 11.2mph /  18km/h 11.5mph /  18.5km/h 43% 0in /  0.0mm
19:24 85.3 °F /  29.6 °C 60.3 °F /  15.7 °C 29.9in /  1011.2hPa NE 11.2mph /  18km/h 16.1mph /  25.9km/h 43% 0in /  0.0mm
19:29 85.3 °F /  29.6 °C 61 °F /  16.1 °C 29.9in /  1011.2hPa NE 10mph /  16.1km/h 15mph /  24.1km/h 44% 0in /  0.0mm
19:34 85.1 °F /  29.5 °C 60.6 °F /  15.9 °C 29.9in /  1011.3hPa NE 10mph /  16.1km/h 12.7mph /  20.4km/h 44% 0in /  0.0mm
19:39 85.1 °F /  29.5 °C 61.3 °F /  16.3 °C 29.9in /  1011.3hPa North 8.7mph /  14km/h 9.2mph /  14.8km/h 45% 0in /  0.0mm
19:44 84.7 °F /  29.3 °C 60.4 °F /  15.8 °C 29.9in /  1011.3hPa ENE 8.7mph /  14km/h 18.4mph /  29.6km/h 44% 0in /  0.0mm
19:49 84.6 °F /  29.2 °C 60.3 °F /  15.7 °C 29.9in /  1011.4hPa Este 9.2mph /  14.8km/h 15mph /  24.1km/h 44% 0in /  0.0mm
19:54 84.4 °F /  29.1 °C 60.1 °F /  15.6 °C 29.9in /  1011.4hPa NE 9.2mph /  14.8km/h 13.8mph /  22.2km/h 44% 0in /  0.0mm
19:59 84.4 °F /  29.1 °C 59.4 °F /  15.2 °C 29.9in /  1011.4hPa NE 8.5mph /  13.7km/h 15mph /  24.1km/h 43% 0in /  0.0mm
20:04 84.4 °F /  29.1 °C 59.4 °F /  15.2 °C 29.9in /  1011.4hPa NE 8.5mph /  13.7km/h 13.7mph /  22km/h 43% 0in /  0.0mm
20:09 84.4 °F /  29.1 °C 59.4 °F /  15.2 °C 29.9in /  1011.4hPa ENE 9.2mph /  14.8km/h 9.2mph /  14.8km/h 43% 0in /  0.0mm
20:14 84.2 °F /  29 °C 59.9 °F /  15.5 °C 29.9in /  1011.4hPa ENE 9.2mph /  14.8km/h 8.1mph /  13km/h 44% 0in /  0.0mm
20:19 84 °F /  28.9 °C 59.7 °F /  15.4 °C 29.9in /  1011.6hPa NE 6.9mph /  11.1km/h 13.8mph /  22.2km/h 44% 0in /  0.0mm
20:24 84 °F /  28.9 °C 59.7 °F /  15.4 °C 29.9in /  1011.6hPa ENE 6.9mph /  11.1km/h 12.5mph /  20.1km/h 44% 0in /  0.0mm
20:29 83.8 °F /  28.8 °C 60.3 °F /  15.7 °C 29.9in /  1011.6hPa NE 7.6mph /  12.2km/h 12.7mph /  20.4km/h 45% 0in /  0.0mm
20:34 83.7 °F /  28.7 °C 60.6 °F /  15.9 °C 29.9in /  1011.6hPa ESE 7.6mph /  12.2km/h 13.8mph /  22.2km/h 46% 0in /  0.0mm
20:39 83.5 °F /  28.6 °C 60.4 °F /  15.8 °C 29.9in /  1011.6hPa ENE 7.6mph /  12.2km/h 11.5mph /  18.5km/h 46% 0in /  0.0mm
20:44 83.3 °F /  28.5 °C 61 °F /  16.1 °C 29.9in /  1011.6hPa Este 7.6mph /  12.2km/h 13.8mph /  22.2km/h 47% 0in /  0.0mm
20:49 83.1 °F /  28.4 °C 61.3 °F /  16.3 °C 29.9in /  1011.7hPa NE 6.9mph /  11.1km/h 10.4mph /  16.7km/h 48% 0in /  0.0mm
20:54 82.9 °F /  28.3 °C 63 °F /  17.2 °C 29.9in /  1011.7hPa ENE 6.9mph /  11.1km/h 13.8mph /  22.2km/h 51% 0in /  0.0mm
20:59 82.6 °F /  28.1 °C 63.7 °F /  17.6 °C 29.9in /  1011.7hPa ENE 6.9mph /  11.1km/h 11.5mph /  18.5km/h 53% 0in /  0.0mm
21:04 82 °F /  27.8 °C 63.9 °F /  17.7 °C 29.9in /  1011.7hPa NE 6.9mph /  11.1km/h 11.5mph /  18.5km/h 54% 0in /  0.0mm
21:09 81.5 °F /  27.5 °C 64.2 °F /  17.9 °C 29.9in /  1011.7hPa NE 8.5mph /  13.7km/h 11.5mph /  18.5km/h 56% 0in /  0.0mm
21:14 81.1 °F /  27.3 °C 64.6 °F /  18.1 °C 29.9in /  1011.7hPa NNE 8.5mph /  13.7km/h 11.5mph /  18.5km/h 57% 0in /  0.0mm
21:19 81 °F /  27.2 °C 64.8 °F /  18.2 °C 29.9in /  1011.8hPa NE 8.1mph /  13km/h 11.5mph /  18.5km/h 58% 0in /  0.0mm
21:24 80.6 °F /  27 °C 65.5 °F /  18.6 °C 29.9in /  1011.8hPa NNE 8.1mph /  13km/h 9.2mph /  14.8km/h 60% 0in /  0.0mm
21:29 80.2 °F /  26.8 °C 65.7 °F /  18.7 °C 29.9in /  1011.8hPa NE 7.6mph /  12.2km/h 15mph /  24.1km/h 61% 0in /  0.0mm
21:34 80.1 °F /  26.7 °C 66.4 °F /  19.1 °C 29.9in /  1011.9hPa ENE 7.6mph /  12.2km/h 12.7mph /  20.4km/h 63% 0in /  0.0mm
21:39 79.9 °F /  26.6 °C 66.2 °F /  19 °C 29.9in /  1011.9hPa ENE 7.4mph /  11.9km/h 9.2mph /  14.8km/h 63% 0in /  0.0mm
21:44 79.7 °F /  26.5 °C 66.4 °F /  19.1 °C 29.9in /  1011.9hPa NE 7.4mph /  11.9km/h 9.2mph /  14.8km/h 64% 0in /  0.0mm
21:49 79.5 °F /  26.4 °C 66.7 °F /  19.3 °C 29.9in /  1012.1hPa NE 6.4mph /  10.3km/h 9.2mph /  14.8km/h 65% 0in /  0.0mm
21:54 79.3 °F /  26.3 °C 66.6 °F /  19.2 °C 29.9in /  1012.1hPa NNE 6.4mph /  10.3km/h 9.2mph /  14.8km/h 65% 0in /  0.0mm
21:59 79.2 °F /  26.2 °C 66.7 °F /  19.3 °C 29.9in /  1012.1hPa ENE 6.9mph /  11.1km/h 9.2mph /  14.8km/h 66% 0in /  0.0mm
22:04 79 °F /  26.1 °C 67.1 °F /  19.5 °C 29.9in /  1012.2hPa NE 6.9mph /  11.1km/h 10.4mph /  16.7km/h 67% 0in /  0.0mm
22:09 78.8 °F /  26 °C 67.3 °F /  19.6 °C 29.9in /  1012.2hPa NE 6.4mph /  10.3km/h 9.2mph /  14.8km/h 68% 0in /  0.0mm
22:14 78.4 °F /  25.8 °C 67.5 °F /  19.7 °C 29.9in /  1012.2hPa ENE 6.4mph /  10.3km/h 10mph /  16.1km/h 69% 0in /  0.0mm
22:19 78.3 °F /  25.7 °C 67.6 °F /  19.8 °C 29.9in /  1012.5hPa NE 7.6mph /  12.2km/h 11.5mph /  18.5km/h 70% 0in /  0.0mm
22:24 78.3 °F /  25.7 °C 68.2 °F /  20.1 °C 29.9in /  1012.5hPa NE 7.6mph /  12.2km/h 7.6mph /  12.2km/h 71% 0in /  0.0mm
22:29 78.1 °F /  25.6 °C 67.8 °F /  19.9 °C 29.9in /  1012.5hPa NE 6.2mph /  10km/h 8.1mph /  13km/h 71% 0in /  0.0mm
22:34 78.1 °F /  25.6 °C 67.8 °F /  19.9 °C 29.9in /  1012.7hPa ENE 6.2mph /  10km/h 9.2mph /  14.8km/h 71% 0in /  0.0mm
22:39 78.1 °F /  25.6 °C 68.4 °F /  20.2 °C 29.9in /  1012.7hPa NE 5.4mph /  8.7km/h 5.8mph /  9.3km/h 72% 0in /  0.0mm
22:44 77.9 °F /  25.5 °C 68.2 °F /  20.1 °C 29.9in /  1012.7hPa Este 5.4mph /  8.7km/h 5.8mph /  9.3km/h 72% 0in /  0.0mm
22:49 77.9 °F /  25.5 °C 68.2 °F /  20.1 °C 29.9in /  1012.9hPa NE 4.3mph /  6.9km/h 5.8mph /  9.3km/h 72% 0in /  0.0mm
22:54 77.7 °F /  25.4 °C 68 °F /  20 °C 29.9in /  1012.9hPa ENE 4.3mph /  6.9km/h 2.3mph /  3.7km/h 72% 0in /  0.0mm
22:59 77.7 °F /  25.4 °C 68 °F /  20 °C 29.9in /  1012.9hPa NE 3.6mph /  5.8km/h 5.4mph /  8.7km/h 72% 0in /  0.0mm
23:04 77.7 °F /  25.4 °C 68.4 °F /  20.2 °C 29.9in /  1013.0hPa ENE 3.6mph /  5.8km/h 5.8mph /  9.3km/h 73% 0in /  0.0mm
23:09 77.5 °F /  25.3 °C 68.2 °F /  20.1 °C 29.9in /  1013.0hPa ENE 3.6mph /  5.8km/h 6.9mph /  11.1km/h 73% 0in /  0.0mm
23:14 77.4 °F /  25.2 °C 68 °F /  20 °C 29.9in /  1013.0hPa NE 3.6mph /  5.8km/h 5.8mph /  9.3km/h 73% 0in /  0.0mm
23:19 77.4 °F /  25.2 °C 68 °F /  20 °C 29.9in /  1013.1hPa NE 3.6mph /  5.8km/h 4.6mph /  7.4km/h 73% 0in /  0.0mm
23:24 77.2 °F /  25.1 °C 68.2 °F /  20.1 °C 29.9in /  1013.1hPa NE 3.6mph /  5.8km/h 4.6mph /  7.4km/h 74% 0in /  0.0mm
23:29 77.2 °F /  25.1 °C 68.2 °F /  20.1 °C 29.9in /  1013.1hPa Este 2.9mph /  4.7km/h 4.3mph /  6.9km/h 74% 0in /  0.0mm
23:34 77.2 °F /  25.1 °C 68.2 °F /  20.1 °C 29.9in /  1013.2hPa NE 2.9mph /  4.7km/h 4.6mph /  7.4km/h 74% 0in /  0.0mm
23:39 77.2 °F /  25.1 °C 68.2 °F /  20.1 °C 29.9in /  1013.2hPa NNE 3.1mph /  5km/h 3.5mph /  5.6km/h 74% 0in /  0.0mm
23:44 77 °F /  25 °C 68.2 °F /  20.1 °C 29.9in /  1013.2hPa NE 3.1mph /  5km/h 4.6mph /  7.4km/h 74% 0in /  0.0mm
23:49 76.8 °F /  24.9 °C 67.8 °F /  19.9 °C 29.9in /  1013.2hPa NE 3.1mph /  5km/h 4.6mph /  7.4km/h 74% 0in /  0.0mm
23:54 76.6 °F /  24.8 °C 68.2 °F /  20.1 °C 29.9in /  1013.2hPa NE 3.1mph /  5km/h 4.6mph /  7.4km/h 75% 0in /  0.0mm
23:59 76.6 °F /  24.8 °C 68.2 °F /  20.1 °C 29.9in /  1013.2hPa NE 3.1mph /  5km/h 5.8mph /  9.3km/h 75% 0in /  0.0mm
Murcia-Puente Tocinos, España
Compliments of Weather Underground - 3 mb

La estación de MeteoMurcia.com, publica sus datos en los siguientes proyectos:

Weather Underground PWS IMURCIAP2 Meteoclimatic www.awekas.at

W3Counter
Web Analytics